This is the latest recevied weather packets stored in our database for station/object YN1JLX-13. If no packets are shown the sender has not sent any weather packets the latest 1 day(s).
| Time | Temp. | Humidity | Pressure | Rain* | Wind** | Luminosity | Snow |
|---|---|---|---|---|---|---|---|
| 1778103962 | 28.33° C | 33% | 1008 hPa | 0 mm | - | - | - |
| 1778103362 | 28.89° C | 33% | 1008 hPa | 0 mm | - | - | - |
| 1778102161 | 30.56° C | 33% | 1008 hPa | 0 mm | - | - | - |
| 1778098559 | 28.89° C | 35% | 1009 hPa | 0 mm | - | - | - |
| 1778096758 | 30° C | 34% | 1009 hPa | 0 mm | - | - | - |
| 1778094957 | 28.33° C | 39% | 1010 hPa | 0 mm | - | - | - |
| 1778093156 | 28.89° C | 40% | 1010 hPa | 0 mm | - | - | - |
| 1778091955 | 27.22° C | 46% | 1011 hPa | 0 mm | - | - | - |
| 1778088953 | 26.11° C | 46% | 1011 hPa | 0 mm | - | - | - |
| 1778084751 | 25° C | 56% | 1013 hPa | 0 mm | - | - | - |
| 1778079948 | 23.89° C | 58% | 1013 hPa | 0 mm | - | - | - |
| 1778075746 | 22.22° C | 70% | 1013 hPa | 0 mm | - | - | - |
| 1778075146 | 21.67° C | 70% | 1012 hPa | 0 mm | - | - | - |
| 1778074546 | 22.22° C | 70% | 1012 hPa | 0 mm | - | - | - |
| 1778072745 | 20° C | 76% | 1012 hPa | 0 mm | - | - | - |
| 1778072144 | 20° C | 73% | 1012 hPa | 0 mm | - | - | - |
| 1778071544 | 21.11° C | 73% | 1012 hPa | 0 mm | - | - | - |
| 1778069743 | 18.33° C | 73% | 1012 hPa | 0 mm | - | - | - |
| 1778067342 | 19.44° C | 73% | 1012 hPa | 0 mm | - | - | - |
| 1778065541 | 19.44° C | 72% | 1012 hPa | 0 mm | - | - | - |
| 1778064941 | 20° C | 72% | 1012 hPa | 0 mm | - | - | - |
| 1778064340 | 18.89° C | 71% | 1011 hPa | 0 mm | - | - | - |
| 1778063740 | 19.44° C | 71% | 1011 hPa | 0 mm | - | - | - |
| 1778061939 | 20° C | 70% | 1011 hPa | 0 mm | - | - | - |
| 1778060138 | 20° C | 70% | 1011 hPa | 0 mm | - | - | - |
* Rain latest hour (hover to see other rain measurements)
** Current wind speed in m/s (hover to see current wind gust speed)